createdAt,value
2023-04-04T03:21:16.098Z,0.51
2023-04-04T03:52:18.106Z,0.25
2023-04-04T03:55:57.786Z,0.20
2023-04-04T03:59:05.114Z,0.15
2023-04-04T04:01:39.901Z,0.06
2023-04-04T05:07:25.437Z,-0.24
2023-04-04T05:09:50.788Z,-0.23
2023-04-04T05:10:47.995Z,-0.26
2023-04-04T05:20:57.210Z,-0.37
2023-04-04T05:24:32.858Z,-0.41
2023-04-04T05:27:12.750Z,-0.45
2023-04-04T05:30:48.154Z,-0.50
2023-04-04T05:41:45.519Z,-0.58
2023-04-04T05:44:28.156Z,-0.58
2023-04-04T05:47:22.437Z,-0.57
2023-04-04T05:50:27.930Z,-0.57
2023-04-04T05:53:36.950Z,-0.55
2023-04-04T05:59:22.377Z,-0.50
2023-04-04T06:02:04.713Z,-0.47
2023-04-04T06:18:18.757Z,0.06
2023-04-04T06:21:03.709Z,0.48
2023-04-04T06:23:40.401Z,0.96
2023-04-04T06:26:09.041Z,1.92
2023-04-04T06:28:37.444Z,3.10
2023-04-04T06:31:10.590Z,4.18
2023-04-04T06:33:42.496Z,5.15
2023-04-04T06:36:13.716Z,6.01
2023-04-04T06:38:41.540Z,6.78
2023-04-04T06:41:09.664Z,7.47
2023-04-04T06:43:38.708Z,8.07
2023-04-04T06:46:07.240Z,8.67
2023-04-04T06:48:35.005Z,9.15
2023-04-04T06:51:06.140Z,9.60
2023-04-04T06:53:35.033Z,10.01
2023-04-04T06:56:03.584Z,10.36
2023-04-04T06:58:31.405Z,10.67
2023-04-04T07:01:00.077Z,10.97
2023-04-04T07:04:07.074Z,11.25
2023-04-04T07:06:38.854Z,11.53
2023-04-04T07:09:28.891Z,11.66
2023-04-04T07:12:14.720Z,11.84
2023-04-04T07:14:42.840Z,12.03
2023-04-04T07:17:21.235Z,12.12
2023-04-04T07:19:57.444Z,12.17
2023-04-04T07:22:26.107Z,12.26
2023-04-04T07:24:54.947Z,12.38
2023-04-04T07:27:25.598Z,12.28
2023-04-04T07:30:01.242Z,12.10
2023-04-04T07:32:29.592Z,12.04
2023-04-04T07:34:57.891Z,12.13
2023-04-04T07:37:27.041Z,12.02
2023-04-04T07:39:55.246Z,11.86
2023-04-04T07:42:23.387Z,11.84
2023-04-04T07:44:51.829Z,11.92
2023-04-04T07:47:20.731Z,11.46
2023-04-04T07:49:48.557Z,10.68
2023-04-04T07:52:16.483Z,10.28
2023-04-04T07:54:44.810Z,9.95
2023-04-04T07:57:12.714Z,9.65
2023-04-04T07:59:40.677Z,9.38
2023-04-04T08:02:08.677Z,9.15
2023-04-04T08:04:36.790Z,9.01
2023-04-04T08:07:04.735Z,8.92
2023-04-04T08:09:44.426Z,8.78
2023-04-04T08:19:08.658Z,8.41
2023-04-04T08:21:27.775Z,8.32
2023-04-04T08:21:57.205Z,8.50
2023-04-04T08:23:56.308Z,8.22
2023-04-04T08:26:24.046Z,8.13
2023-04-04T08:28:51.897Z,8.01
2023-04-04T08:31:19.688Z,7.91
2023-04-04T08:33:48.054Z,7.86
2023-04-04T08:36:16.810Z,7.84
2023-04-04T08:38:44.763Z,7.84
2023-04-04T08:41:13.342Z,7.90
2023-04-04T08:43:43.886Z,7.96
2023-04-04T08:46:12.864Z,7.93
2023-04-04T08:48:43.510Z,7.94
2023-04-04T08:51:14.252Z,7.93
2023-04-04T08:53:42.372Z,7.93
2023-04-04T08:56:10.274Z,7.93
2023-04-04T08:58:39.875Z,7.95
2023-04-04T09:01:08.559Z,7.99
2023-04-04T09:03:39.313Z,8.04
2023-04-04T09:06:08.579Z,8.08
2023-04-04T09:08:37.124Z,8.14
2023-04-04T09:11:05.836Z,8.14
2023-04-04T09:13:34.435Z,8.12
2023-04-04T09:16:02.183Z,8.12
2023-04-04T09:18:30.044Z,8.13
2023-04-04T09:20:57.974Z,8.15
2023-04-04T09:23:29.101Z,8.19
2023-04-04T09:26:03.755Z,8.27
2023-04-04T09:28:33.466Z,8.34
2023-04-04T09:31:03.183Z,8.42
2023-04-04T09:33:34.430Z,8.45
2023-04-04T09:36:05.223Z,8.53
2023-04-04T09:38:36.749Z,8.60
2023-04-04T09:41:09.776Z,8.66
2023-04-04T09:43:39.627Z,8.76
2023-04-04T09:46:08.278Z,8.82
2023-04-04T09:48:37.687Z,8.93
2023-04-04T09:51:12.611Z,9.01
2023-04-04T09:53:44.109Z,9.09
2023-04-04T09:56:12.939Z,9.19
2023-04-04T09:58:52.615Z,9.23
2023-04-04T10:01:25.205Z,9.27
2023-04-04T10:03:54.711Z,9.33
2023-04-04T10:06:23.240Z,9.43
2023-04-04T10:08:52.205Z,9.54
2023-04-04T10:11:31.981Z,9.62
2023-04-04T10:14:01.682Z,9.70
2023-04-04T10:16:37.143Z,9.76
2023-04-04T10:19:13.844Z,9.83
2023-04-04T10:21:43.106Z,9.90
2023-04-04T10:24:13.952Z,9.97
2023-04-04T10:26:42.177Z,10.04
2023-04-04T10:29:16.213Z,10.08
2023-04-04T10:31:45.688Z,10.15
2023-04-04T10:34:32.876Z,10.19
2023-04-04T10:37:13.606Z,10.32
2023-04-04T10:39:47.432Z,10.46
2023-04-04T10:42:23.475Z,10.57
2023-04-04T10:45:09.056Z,10.69
2023-04-04T10:47:45.612Z,10.80
2023-04-04T10:50:14.382Z,10.92
2023-04-04T10:52:44.748Z,11.05
2023-04-04T10:55:14.304Z,11.15
2023-04-04T10:57:43.764Z,11.21
2023-04-04T11:00:13.530Z,11.30
2023-04-04T11:02:45.979Z,11.40
2023-04-04T11:05:23.497Z,11.45
2023-04-04T11:10:32.844Z,11.47
2023-04-04T11:13:16.407Z,11.57
2023-04-04T11:16:05.335Z,11.65
2023-04-04T11:18:40.426Z,11.71
2023-04-04T11:21:26.494Z,11.80
2023-04-04T11:23:54.379Z,11.91
2023-04-04T11:26:28.444Z,12.03
2023-04-04T11:28:57.411Z,12.13
2023-04-04T11:31:27.653Z,12.22
2023-04-04T11:34:12.977Z,12.31
2023-04-04T11:37:07.558Z,12.36
2023-04-04T11:39:57.447Z,12.43
2023-04-04T11:42:42.443Z,12.51
2023-04-04T11:45:39.759Z,12.55
2023-04-04T11:52:00.195Z,12.61
2023-04-04T11:55:20.599Z,12.47
2023-04-04T11:58:28.302Z,12.53
2023-04-04T12:00:59.139Z,12.62
2023-04-04T12:09:56.134Z,13.07
2023-04-04T12:17:16.077Z,13.08
2023-04-04T12:19:45.015Z,13.25
2023-04-04T12:22:13.454Z,13.37
2023-04-04T12:24:42.396Z,13.48
2023-04-04T12:27:15.177Z,13.61
2023-04-04T12:29:52.058Z,13.61
2023-04-04T12:32:45.771Z,13.60
2023-04-04T12:35:20.060Z,13.61
2023-04-04T12:37:58.468Z,13.60
2023-04-04T12:40:34.102Z,13.62
2023-04-04T12:43:02.687Z,13.79
2023-04-04T12:45:32.503Z,13.89
2023-04-04T12:48:29.451Z,13.98
2023-04-04T12:50:58.633Z,14.06
2023-04-04T12:53:29.985Z,14.15
2023-04-04T12:56:03.292Z,14.25
2023-04-04T12:58:32.637Z,14.32
2023-04-04T13:01:03.421Z,14.24
2023-04-04T13:03:31.694Z,14.24
2023-04-04T13:06:01.058Z,14.31
2023-04-04T13:08:35.908Z,14.40
2023-04-04T13:11:25.895Z,14.53
2023-04-04T13:14:04.296Z,14.65
2023-04-04T13:16:35.986Z,14.79
2023-04-04T13:19:13.070Z,14.96
2023-04-04T13:21:43.389Z,15.05
2023-04-04T13:24:12.277Z,14.93
2023-04-04T13:26:41.495Z,14.89
2023-04-04T13:29:11.373Z,14.77
2023-04-04T13:31:40.397Z,14.70
2023-04-04T13:34:08.770Z,14.71
2023-04-04T13:36:45.682Z,14.82
2023-04-04T13:39:20.184Z,15.05
2023-04-04T13:41:53.294Z,15.08
2023-04-04T13:44:30.961Z,15.20
2023-04-04T13:46:59.747Z,15.29
2023-04-04T13:49:34.212Z,15.42
2023-04-04T13:52:04.085Z,15.57
2023-04-04T13:54:33.384Z,15.72
2023-04-04T13:57:28.147Z,15.81
2023-04-04T13:59:57.272Z,15.93
2023-04-04T14:02:45.232Z,15.84
2023-04-04T14:05:13.820Z,15.74
2023-04-04T14:07:42.177Z,15.64
2023-04-04T14:10:11.874Z,15.68
2023-04-04T14:12:41.298Z,15.70
2023-04-04T14:15:10.167Z,15.69
2023-04-04T14:17:39.066Z,15.76
2023-04-04T14:20:09.278Z,15.93
2023-04-04T14:22:43.192Z,16.03
2023-04-04T14:25:56.995Z,16.06
2023-04-04T14:28:45.154Z,16.06
2023-04-04T14:31:35.176Z,16.21
2023-04-04T14:34:52.688Z,16.38
2023-04-04T14:40:34.062Z,16.50
2023-04-04T14:44:57.482Z,16.81
2023-04-04T14:51:50.094Z,16.68
2023-04-04T14:52:37.941Z,16.79
2023-04-04T15:22:40.705Z,17.44
2023-04-04T15:52:10.861Z,18.10
2023-04-04T15:54:42.591Z,18.11
2023-04-04T15:57:14.453Z,18.17
2023-04-04T15:59:43.449Z,18.24
2023-04-04T16:02:14.609Z,18.28
2023-04-04T16:05:19.863Z,18.31
2023-04-04T16:17:21.339Z,18.42
2023-04-04T17:04:15.770Z,17.86
2023-04-04T17:07:23.038Z,17.81
2023-04-04T17:10:22.757Z,17.80
2023-04-04T17:24:00.661Z,17.71
2023-04-04T17:34:25.256Z,17.36
2023-04-04T17:37:00.474Z,17.09
2023-04-04T17:39:41.306Z,16.78
2023-04-04T17:42:30.330Z,16.56
2023-04-04T22:02:37.254Z,6.75
2023-04-04T22:05:12.049Z,6.72
2023-04-04T23:56:47.261Z,5.78
